sensor_id;sensor_type;location;lat;lon;timestamp;temperature;humidity
46562;DHT22;32289;42.688;23.330;2022-12-08T00:03:18;3.60;99.90
46562;DHT22;32289;42.688;23.330;2022-12-08T00:06:59;3.60;99.90
46562;DHT22;32289;42.688;23.330;2022-12-08T00:10:58;3.60;99.90
46562;DHT22;32289;42.688;23.330;2022-12-08T00:14:44;3.70;99.90
46562;DHT22;32289;42.688;23.330;2022-12-08T00:18:25;3.60;99.90
46562;DHT22;32289;42.688;23.330;2022-12-08T00:22:07;3.50;99.90
46562;DHT22;32289;42.688;23.330;2022-12-08T00:25:48;3.40;99.90
46562;DHT22;32289;42.688;23.330;2022-12-08T00:29:28;3.40;99.90
46562;DHT22;32289;42.688;23.330;2022-12-08T00:33:09;3.40;99.90
46562;DHT22;32289;42.688;23.330;2022-12-08T00:36:50;3.30;99.90
46562;DHT22;32289;42.688;23.330;2022-12-08T00:40:31;3.30;99.90
46562;DHT22;32289;42.688;23.330;2022-12-08T00:44:14;3.20;99.90
46562;DHT22;32289;42.688;23.330;2022-12-08T00:47:55;3.20;99.90
46562;DHT22;32289;42.688;23.330;2022-12-08T00:51:36;3.30;99.90
46562;DHT22;32289;42.688;23.330;2022-12-08T00:55:17;3.40;99.90
46562;DHT22;32289;42.688;23.330;2022-12-08T00:58:58;3.40;99.90
46562;DHT22;32289;42.688;23.330;2022-12-08T01:02:39;3.40;99.90
46562;DHT22;32289;42.688;23.330;2022-12-08T01:06:20;3.40;99.90
46562;DHT22;32289;42.688;23.330;2022-12-08T01:10:01;3.50;99.90
46562;DHT22;32289;42.688;23.330;2022-12-08T01:13:44;3.50;99.90
46562;DHT22;32289;42.688;23.330;2022-12-08T01:17:24;3.60;99.90
46562;DHT22;32289;42.688;23.330;2022-12-08T01:21:06;3.50;99.90
46562;DHT22;32289;42.688;23.330;2022-12-08T01:24:47;3.50;99.90
46562;DHT22;32289;42.688;23.330;2022-12-08T01:28:28;3.40;99.90
46562;DHT22;32289;42.688;23.330;2022-12-08T01:32:09;3.50;99.90
46562;DHT22;32289;42.688;23.330;2022-12-08T01:35:49;3.40;99.90
46562;DHT22;32289;42.688;23.330;2022-12-08T01:39:30;3.30;99.90
46562;DHT22;32289;42.688;23.330;2022-12-08T01:43:19;3.30;99.90
46562;DHT22;32289;42.688;23.330;2022-12-08T01:46:59;3.30;99.90
46562;DHT22;32289;42.688;23.330;2022-12-08T01:50:41;3.30;99.90
46562;DHT22;32289;42.688;23.330;2022-12-08T01:54:25;3.40;99.90
46562;DHT22;32289;42.688;23.330;2022-12-08T01:58:13;3.50;99.90
46562;DHT22;32289;42.688;23.330;2022-12-08T02:01:55;3.40;99.90
46562;DHT22;32289;42.688;23.330;2022-12-08T02:05:38;3.30;99.90
46562;DHT22;32289;42.688;23.330;2022-12-08T02:09:19;3.20;99.90
46562;DHT22;32289;42.688;23.330;2022-12-08T02:13:01;3.10;99.90
46562;DHT22;32289;42.688;23.330;2022-12-08T02:16:56;3.20;99.90
46562;DHT22;32289;42.688;23.330;2022-12-08T02:20:55;3.20;99.90
46562;DHT22;32289;42.688;23.330;2022-12-08T02:24:40;3.20;99.90
46562;DHT22;32289;42.688;23.330;2022-12-08T02:44:00;2.80;99.90
46562;DHT22;32289;42.688;23.330;2022-12-08T02:47:44;3.00;99.90
46562;DHT22;32289;42.688;23.330;2022-12-08T02:51:26;2.90;99.90
46562;DHT22;32289;42.688;23.330;2022-12-08T02:55:25;2.90;99.90
46562;DHT22;32289;42.688;23.330;2022-12-08T03:03:26;2.80;99.90
46562;DHT22;32289;42.688;23.330;2022-12-08T03:15:06;3.00;99.90
46562;DHT22;32289;42.688;23.330;2022-12-08T03:18:53;3.00;99.90
46562;DHT22;32289;42.688;23.330;2022-12-08T03:22:36;2.70;99.90
46562;DHT22;32289;42.688;23.330;2022-12-08T03:26:27;2.50;99.90
46562;DHT22;32289;42.688;23.330;2022-12-08T03:30:09;2.60;99.90
46562;DHT22;32289;42.688;23.330;2022-12-08T03:33:51;2.70;99.90
46562;DHT22;32289;42.688;23.330;2022-12-08T03:37:38;2.80;99.90
46562;DHT22;32289;42.688;23.330;2022-12-08T03:41:20;2.90;99.90
46562;DHT22;32289;42.688;23.330;2022-12-08T03:45:01;3.00;99.90
46562;DHT22;32289;42.688;23.330;2022-12-08T03:48:42;2.90;99.90
46562;DHT22;32289;42.688;23.330;2022-12-08T03:52:23;3.00;99.90
46562;DHT22;32289;42.688;23.330;2022-12-08T03:56:23;2.90;99.90
46562;DHT22;32289;42.688;23.330;2022-12-08T04:00:06;2.80;99.90
46562;DHT22;32289;42.688;23.330;2022-12-08T04:03:47;2.90;99.90
46562;DHT22;32289;42.688;23.330;2022-12-08T04:07:28;2.80;99.90
46562;DHT22;32289;42.688;23.330;2022-12-08T04:11:09;2.80;99.90
46562;DHT22;32289;42.688;23.330;2022-12-08T04:14:50;2.80;99.90
46562;DHT22;32289;42.688;23.330;2022-12-08T04:18:31;2.80;99.90
46562;DHT22;32289;42.688;23.330;2022-12-08T04:22:12;2.80;99.90
46562;DHT22;32289;42.688;23.330;2022-12-08T04:25:53;2.70;99.90
46562;DHT22;32289;42.688;23.330;2022-12-08T04:29:33;2.80;99.90
46562;DHT22;32289;42.688;23.330;2022-12-08T04:33:14;2.80;99.90
46562;DHT22;32289;42.688;23.330;2022-12-08T04:36:55;2.80;99.90
46562;DHT22;32289;42.688;23.330;2022-12-08T04:40:36;2.90;99.90
46562;DHT22;32289;42.688;23.330;2022-12-08T04:44:16;2.80;99.90
46562;DHT22;32289;42.688;23.330;2022-12-08T04:47:58;2.90;99.90
46562;DHT22;32289;42.688;23.330;2022-12-08T04:51:39;2.90;99.90
46562;DHT22;32289;42.688;23.330;2022-12-08T04:55:20;3.10;99.90
46562;DHT22;32289;42.688;23.330;2022-12-08T04:59:01;3.00;99.90
46562;DHT22;32289;42.688;23.330;2022-12-08T05:02:42;3.00;99.90
46562;DHT22;32289;42.688;23.330;2022-12-08T05:06:22;3.20;99.90
46562;DHT22;32289;42.688;23.330;2022-12-08T05:10:04;3.20;99.90
46562;DHT22;32289;42.688;23.330;2022-12-08T05:13:45;3.20;99.90
46562;DHT22;32289;42.688;23.330;2022-12-08T05:17:26;3.20;99.90
46562;DHT22;32289;42.688;23.330;2022-12-08T05:21:07;3.30;99.90
46562;DHT22;32289;42.688;23.330;2022-12-08T05:24:48;3.30;99.90
46562;DHT22;32289;42.688;23.330;2022-12-08T05:28:29;3.30;99.90
46562;DHT22;32289;42.688;23.330;2022-12-08T05:32:10;3.20;99.90
46562;DHT22;32289;42.688;23.330;2022-12-08T05:35:50;3.00;99.90
46562;DHT22;32289;42.688;23.330;2022-12-08T05:39:31;2.90;99.90
46562;DHT22;32289;42.688;23.330;2022-12-08T05:43:12;3.00;99.90
46562;DHT22;32289;42.688;23.330;2022-12-08T05:46:52;3.00;99.90
46562;DHT22;32289;42.688;23.330;2022-12-08T05:50:33;3.00;99.90
46562;DHT22;32289;42.688;23.330;2022-12-08T05:54:14;2.90;99.90
46562;DHT22;32289;42.688;23.330;2022-12-08T05:57:55;2.90;99.90
46562;DHT22;32289;42.688;23.330;2022-12-08T06:01:35;2.80;99.90
46562;DHT22;32289;42.688;23.330;2022-12-08T06:05:16;2.90;99.90
46562;DHT22;32289;42.688;23.330;2022-12-08T06:08:57;2.90;99.90
46562;DHT22;32289;42.688;23.330;2022-12-08T06:12:37;2.80;99.90
46562;DHT22;32289;42.688;23.330;2022-12-08T06:16:19;3.20;99.90
46562;DHT22;32289;42.688;23.330;2022-12-08T06:20:00;3.20;99.90
46562;DHT22;32289;42.688;23.330;2022-12-08T06:23:41;3.20;99.90
46562;DHT22;32289;42.688;23.330;2022-12-08T06:27:22;3.30;99.90
46562;DHT22;32289;42.688;23.330;2022-12-08T06:31:23;3.20;99.90
46562;DHT22;32289;42.688;23.330;2022-12-08T06:35:04;3.40;99.90
46562;DHT22;32289;42.688;23.330;2022-12-08T06:38:45;3.40;99.90
46562;DHT22;32289;42.688;23.330;2022-12-08T06:42:26;3.50;99.90
46562;DHT22;32289;42.688;23.330;2022-12-08T06:46:26;3.60;99.90
46562;DHT22;32289;42.688;23.330;2022-12-08T06:50:07;3.70;99.90
46562;DHT22;32289;42.688;23.330;2022-12-08T06:53:48;3.60;99.90
46562;DHT22;32289;42.688;23.330;2022-12-08T06:57:29;3.60;99.90
46562;DHT22;32289;42.688;23.330;2022-12-08T07:01:11;3.50;99.90
46562;DHT22;32289;42.688;23.330;2022-12-08T07:04:52;3.30;99.90
46562;DHT22;32289;42.688;23.330;2022-12-08T07:08:33;3.40;99.90
46562;DHT22;32289;42.688;23.330;2022-12-08T07:12:14;3.50;99.90
46562;DHT22;32289;42.688;23.330;2022-12-08T07:15:57;3.90;99.90
46562;DHT22;32289;42.688;23.330;2022-12-08T07:19:38;4.10;99.90
46562;DHT22;32289;42.688;23.330;2022-12-08T07:23:18;4.40;99.90
46562;DHT22;32289;42.688;23.330;2022-12-08T07:26:59;4.60;99.90
46562;DHT22;32289;42.688;23.330;2022-12-08T07:30:40;4.70;99.90
46562;DHT22;32289;42.688;23.330;2022-12-08T07:34:20;4.80;99.90
46562;DHT22;32289;42.688;23.330;2022-12-08T07:38:01;4.70;99.90
46562;DHT22;32289;42.688;23.330;2022-12-08T07:41:42;4.80;99.90
46562;DHT22;32289;42.688;23.330;2022-12-08T07:45:23;4.60;99.90
46562;DHT22;32289;42.688;23.330;2022-12-08T07:49:03;4.70;99.90
46562;DHT22;32289;42.688;23.330;2022-12-08T07:52:44;4.70;99.90
46562;DHT22;32289;42.688;23.330;2022-12-08T07:56:25;4.60;99.90
46562;DHT22;32289;42.688;23.330;2022-12-08T08:00:06;4.70;99.90
46562;DHT22;32289;42.688;23.330;2022-12-08T08:03:47;4.90;99.90
46562;DHT22;32289;42.688;23.330;2022-12-08T08:07:30;4.80;99.90
46562;DHT22;32289;42.688;23.330;2022-12-08T08:11:10;5.00;99.90
46562;DHT22;32289;42.688;23.330;2022-12-08T08:14:51;5.50;99.90
46562;DHT22;32289;42.688;23.330;2022-12-08T08:18:33;5.90;99.90
46562;DHT22;32289;42.688;23.330;2022-12-08T08:22:14;6.10;99.90
46562;DHT22;32289;42.688;23.330;2022-12-08T08:25:58;6.30;99.90
46562;DHT22;32289;42.688;23.330;2022-12-08T08:29:40;6.30;99.90
46562;DHT22;32289;42.688;23.330;2022-12-08T08:33:21;6.70;99.90
46562;DHT22;32289;42.688;23.330;2022-12-08T08:37:02;6.60;99.90
46562;DHT22;32289;42.688;23.330;2022-12-08T08:40:42;6.70;99.90
46562;DHT22;32289;42.688;23.330;2022-12-08T08:44:23;8.40;99.90
46562;DHT22;32289;42.688;23.330;2022-12-08T08:48:06;9.60;99.90
46562;DHT22;32289;42.688;23.330;2022-12-08T08:51:47;11.50;99.90
46562;DHT22;32289;42.688;23.330;2022-12-08T08:55:27;12.10;96.20
46562;DHT22;32289;42.688;23.330;2022-12-08T08:59:09;12.60;95.40
46562;DHT22;32289;42.688;23.330;2022-12-08T09:02:50;12.40;94.80
46562;DHT22;32289;42.688;23.330;2022-12-08T09:06:30;11.50;97.50
46562;DHT22;32289;42.688;23.330;2022-12-08T09:10:11;11.70;96.90
46562;DHT22;32289;42.688;23.330;2022-12-08T09:13:53;11.20;96.50
46562;DHT22;32289;42.688;23.330;2022-12-08T09:17:33;10.70;96.80
46562;DHT22;32289;42.688;23.330;2022-12-08T09:21:20;10.20;98.60
46562;DHT22;32289;42.688;23.330;2022-12-08T09:25:02;10.30;99.90
46562;DHT22;32289;42.688;23.330;2022-12-08T09:28:42;11.20;97.80
46562;DHT22;32289;42.688;23.330;2022-12-08T09:32:25;10.10;99.10
46562;DHT22;32289;42.688;23.330;2022-12-08T09:36:07;9.70;99.90
46562;DHT22;32289;42.688;23.330;2022-12-08T09:39:48;10.40;99.90
46562;DHT22;32289;42.688;23.330;2022-12-08T09:48:15;9.00;99.90
46562;DHT22;32289;42.688;23.330;2022-12-08T09:51:58;9.30;99.90
46562;DHT22;32289;42.688;23.330;2022-12-08T09:55:46;9.90;99.90
46562;DHT22;32289;42.688;23.330;2022-12-08T09:59:31;9.80;99.90
46562;DHT22;32289;42.688;23.330;2022-12-08T10:03:12;9.70;99.90
46562;DHT22;32289;42.688;23.330;2022-12-08T10:07:20;9.90;99.90
46562;DHT22;32289;42.688;23.330;2022-12-08T10:11:10;9.40;99.90
46562;DHT22;32289;42.688;23.330;2022-12-08T10:18:39;9.30;99.90
46562;DHT22;32289;42.688;23.330;2022-12-08T10:22:23;9.20;99.90
46562;DHT22;32289;42.688;23.330;2022-12-08T10:26:07;9.00;99.90
46562;DHT22;32289;42.688;23.330;2022-12-08T10:29:50;9.00;99.90
46562;DHT22;32289;42.688;23.330;2022-12-08T10:33:32;9.20;99.90
46562;DHT22;32289;42.688;23.330;2022-12-08T10:37:15;8.60;99.90
46562;DHT22;32289;42.688;23.330;2022-12-08T10:56:55;9.00;99.90
46562;DHT22;32289;42.688;23.330;2022-12-08T11:00:37;9.00;99.90
46562;DHT22;32289;42.688;23.330;2022-12-08T11:04:32;8.80;99.90
46562;DHT22;32289;42.688;23.330;2022-12-08T11:08:15;9.30;99.90
46562;DHT22;32289;42.688;23.330;2022-12-08T11:12:07;9.90;99.90
46562;DHT22;32289;42.688;23.330;2022-12-08T11:15:49;10.00;99.80
46562;DHT22;32289;42.688;23.330;2022-12-08T11:19:30;10.70;98.20
46562;DHT22;32289;42.688;23.330;2022-12-08T11:23:21;10.60;96.90
46562;DHT22;32289;42.688;23.330;2022-12-08T11:27:04;10.30;98.00
46562;DHT22;32289;42.688;23.330;2022-12-08T11:30:51;10.60;97.80
46562;DHT22;32289;42.688;23.330;2022-12-08T11:38:23;11.10;96.10
46562;DHT22;32289;42.688;23.330;2022-12-08T11:42:04;11.00;96.10
46562;DHT22;32289;42.688;23.330;2022-12-08T11:45:54;11.10;95.50
46562;DHT22;32289;42.688;23.330;2022-12-08T11:49:38;11.00;95.80
46562;DHT22;32289;42.688;23.330;2022-12-08T11:53:42;11.20;95.00
46562;DHT22;32289;42.688;23.330;2022-12-08T11:57:27;11.20;95.20
46562;DHT22;32289;42.688;23.330;2022-12-08T12:01:19;10.80;96.20
46562;DHT22;32289;42.688;23.330;2022-12-08T12:17:05;11.20;96.10
46562;DHT22;32289;42.688;23.330;2022-12-08T12:21:18;11.10;95.40
46562;DHT22;32289;42.688;23.330;2022-12-08T12:24:58;10.50;97.00
46562;DHT22;32289;42.688;23.330;2022-12-08T12:28:52;10.90;97.00
46562;DHT22;32289;42.688;23.330;2022-12-08T12:32:44;11.40;95.50
46562;DHT22;32289;42.688;23.330;2022-12-08T12:36:26;11.00;96.10
46562;DHT22;32289;42.688;23.330;2022-12-08T12:40:17;11.50;95.30
46562;DHT22;32289;42.688;23.330;2022-12-08T12:48:12;11.70;94.30
46562;DHT22;32289;42.688;23.330;2022-12-08T12:51:54;11.60;94.30
46562;DHT22;32289;42.688;23.330;2022-12-08T12:55:54;11.10;95.50
46562;DHT22;32289;42.688;23.330;2022-12-08T13:00:06;11.20;96.10
46562;DHT22;32289;42.688;23.330;2022-12-08T13:04:03;11.10;96.10
46562;DHT22;32289;42.688;23.330;2022-12-08T13:07:58;11.00;96.40
46562;DHT22;32289;42.688;23.330;2022-12-08T13:11:49;10.90;96.70
46562;DHT22;32289;42.688;23.330;2022-12-08T13:15:37;10.70;97.40
46562;DHT22;32289;42.688;23.330;2022-12-08T13:19:19;10.90;96.90
46562;DHT22;32289;42.688;23.330;2022-12-08T13:30:51;10.90;97.30
46562;DHT22;32289;42.688;23.330;2022-12-08T13:34:56;10.90;97.30
46562;DHT22;32289;42.688;23.330;2022-12-08T13:38:38;10.90;97.20
46562;DHT22;32289;42.688;23.330;2022-12-08T13:46:36;10.60;98.50
46562;DHT22;32289;42.688;23.330;2022-12-08T13:50:29;10.60;98.50
46562;DHT22;32289;42.688;23.330;2022-12-08T13:57:56;10.40;99.50
46562;DHT22;32289;42.688;23.330;2022-12-08T14:01:43;10.30;99.80
46562;DHT22;32289;42.688;23.330;2022-12-08T14:05:27;10.20;99.90
46562;DHT22;32289;42.688;23.330;2022-12-08T14:09:31;10.20;99.90
46562;DHT22;32289;42.688;23.330;2022-12-08T14:13:13;10.40;99.90
46562;DHT22;32289;42.688;23.330;2022-12-08T14:17:05;10.30;99.90
46562;DHT22;32289;42.688;23.330;2022-12-08T14:21:10;10.00;99.90
46562;DHT22;32289;42.688;23.330;2022-12-08T14:24:53;10.00;99.90
46562;DHT22;32289;42.688;23.330;2022-12-08T14:28:35;9.80;99.90
46562;DHT22;32289;42.688;23.330;2022-12-08T14:32:33;9.80;99.90
46562;DHT22;32289;42.688;23.330;2022-12-08T14:36:17;9.80;99.90
46562;DHT22;32289;42.688;23.330;2022-12-08T14:40:03;9.80;99.90
46562;DHT22;32289;42.688;23.330;2022-12-08T14:43:45;9.60;99.90
46562;DHT22;32289;42.688;23.330;2022-12-08T14:47:37;9.60;99.90
46562;DHT22;32289;42.688;23.330;2022-12-08T14:55:01;9.40;99.90
46562;DHT22;32289;42.688;23.330;2022-12-08T14:58:42;9.30;99.90
46562;DHT22;32289;42.688;23.330;2022-12-08T15:02:30;9.40;99.90
46562;DHT22;32289;42.688;23.330;2022-12-08T15:06:11;9.30;99.90
46562;DHT22;32289;42.688;23.330;2022-12-08T15:13:54;9.20;99.90
46562;DHT22;32289;42.688;23.330;2022-12-08T15:18:00;9.30;99.90
46562;DHT22;32289;42.688;23.330;2022-12-08T15:21:43;9.30;99.90
46562;DHT22;32289;42.688;23.330;2022-12-08T15:25:24;9.20;99.90
46562;DHT22;32289;42.688;23.330;2022-12-08T15:29:10;9.60;99.90
46562;DHT22;32289;42.688;23.330;2022-12-08T15:32:52;9.50;99.90
46562;DHT22;32289;42.688;23.330;2022-12-08T15:36:35;9.40;99.90
46562;DHT22;32289;42.688;23.330;2022-12-08T15:40:19;9.20;99.90
46562;DHT22;32289;42.688;23.330;2022-12-08T15:44:00;9.10;99.90
46562;DHT22;32289;42.688;23.330;2022-12-08T15:47:42;9.00;99.90
46562;DHT22;32289;42.688;23.330;2022-12-08T15:51:23;8.90;99.90
46562;DHT22;32289;42.688;23.330;2022-12-08T15:55:04;8.80;99.90
46562;DHT22;32289;42.688;23.330;2022-12-08T15:58:44;8.70;99.90
46562;DHT22;32289;42.688;23.330;2022-12-08T16:02:26;8.60;99.90
46562;DHT22;32289;42.688;23.330;2022-12-08T16:06:15;8.50;99.90
46562;DHT22;32289;42.688;23.330;2022-12-08T16:09:56;8.50;99.90
46562;DHT22;32289;42.688;23.330;2022-12-08T16:13:37;8.60;99.90
46562;DHT22;32289;42.688;23.330;2022-12-08T16:17:30;8.40;99.90
46562;DHT22;32289;42.688;23.330;2022-12-08T16:21:11;8.60;99.90
46562;DHT22;32289;42.688;23.330;2022-12-08T16:24:52;8.60;99.90
46562;DHT22;32289;42.688;23.330;2022-12-08T16:28:33;8.60;99.90
46562;DHT22;32289;42.688;23.330;2022-12-08T16:32:14;8.60;99.90
46562;DHT22;32289;42.688;23.330;2022-12-08T16:35:55;8.50;99.90
46562;DHT22;32289;42.688;23.330;2022-12-08T16:39:35;8.40;99.90
46562;DHT22;32289;42.688;23.330;2022-12-08T16:43:16;8.40;99.90
46562;DHT22;32289;42.688;23.330;2022-12-08T16:46:57;8.40;99.90
46562;DHT22;32289;42.688;23.330;2022-12-08T16:50:43;8.50;99.90
46562;DHT22;32289;42.688;23.330;2022-12-08T16:54:24;8.40;99.90
46562;DHT22;32289;42.688;23.330;2022-12-08T16:58:05;8.30;99.90
46562;DHT22;32289;42.688;23.330;2022-12-08T17:01:46;8.10;99.90
46562;DHT22;32289;42.688;23.330;2022-12-08T17:05:26;8.30;99.90
46562;DHT22;32289;42.688;23.330;2022-12-08T17:09:07;8.20;99.90
46562;DHT22;32289;42.688;23.330;2022-12-08T17:12:49;8.20;99.90
46562;DHT22;32289;42.688;23.330;2022-12-08T17:16:30;8.10;99.90
46562;DHT22;32289;42.688;23.330;2022-12-08T17:20:13;8.10;99.90
46562;DHT22;32289;42.688;23.330;2022-12-08T17:23:54;7.90;99.90
46562;DHT22;32289;42.688;23.330;2022-12-08T17:27:35;8.00;99.90
46562;DHT22;32289;42.688;23.330;2022-12-08T17:31:16;7.80;99.90
46562;DHT22;32289;42.688;23.330;2022-12-08T17:34:57;7.80;99.90
46562;DHT22;32289;42.688;23.330;2022-12-08T17:38:38;7.70;99.90
46562;DHT22;32289;42.688;23.330;2022-12-08T17:42:19;7.90;99.90
46562;DHT22;32289;42.688;23.330;2022-12-08T17:46:05;7.90;99.90
46562;DHT22;32289;42.688;23.330;2022-12-08T17:49:46;7.60;99.90
46562;DHT22;32289;42.688;23.330;2022-12-08T17:53:26;7.80;99.90
46562;DHT22;32289;42.688;23.330;2022-12-08T17:57:07;7.70;99.90
46562;DHT22;32289;42.688;23.330;2022-12-08T18:00:50;7.80;99.90
46562;DHT22;32289;42.688;23.330;2022-12-08T18:04:30;7.70;99.90
46562;DHT22;32289;42.688;23.330;2022-12-08T18:08:11;7.70;99.90
46562;DHT22;32289;42.688;23.330;2022-12-08T18:11:54;7.40;99.90
46562;DHT22;32289;42.688;23.330;2022-12-08T18:15:35;7.50;99.90
46562;DHT22;32289;42.688;23.330;2022-12-08T18:19:16;7.50;99.90
46562;DHT22;32289;42.688;23.330;2022-12-08T18:22:56;7.60;99.90
46562;DHT22;32289;42.688;23.330;2022-12-08T18:26:38;7.60;99.90
46562;DHT22;32289;42.688;23.330;2022-12-08T18:30:19;7.70;99.90
46562;DHT22;32289;42.688;23.330;2022-12-08T18:34:01;7.40;99.90
46562;DHT22;32289;42.688;23.330;2022-12-08T18:37:42;7.70;99.90
46562;DHT22;32289;42.688;23.330;2022-12-08T18:41:24;7.60;99.90
46562;DHT22;32289;42.688;23.330;2022-12-08T18:45:06;7.60;99.90
46562;DHT22;32289;42.688;23.330;2022-12-08T18:48:49;7.60;99.90
46562;DHT22;32289;42.688;23.330;2022-12-08T18:52:31;7.50;99.90
46562;DHT22;32289;42.688;23.330;2022-12-08T18:56:30;7.60;99.90
46562;DHT22;32289;42.688;23.330;2022-12-08T19:00:13;7.40;99.90
46562;DHT22;32289;42.688;23.330;2022-12-08T19:03:54;7.70;99.90
46562;DHT22;32289;42.688;23.330;2022-12-08T19:07:37;7.60;99.90
46562;DHT22;32289;42.688;23.330;2022-12-08T19:11:23;7.60;99.90
46562;DHT22;32289;42.688;23.330;2022-12-08T19:15:04;7.40;99.90
46562;DHT22;32289;42.688;23.330;2022-12-08T19:18:45;7.60;99.90
46562;DHT22;32289;42.688;23.330;2022-12-08T19:22:26;7.60;99.90
46562;DHT22;32289;42.688;23.330;2022-12-08T19:26:07;7.40;99.90
46562;DHT22;32289;42.688;23.330;2022-12-08T19:29:48;7.20;99.90
46562;DHT22;32289;42.688;23.330;2022-12-08T19:33:29;7.10;99.90
46562;DHT22;32289;42.688;23.330;2022-12-08T19:37:10;7.20;99.90
46562;DHT22;32289;42.688;23.330;2022-12-08T19:40:52;7.30;99.90
46562;DHT22;32289;42.688;23.330;2022-12-08T19:44:51;7.30;99.90
46562;DHT22;32289;42.688;23.330;2022-12-08T19:48:31;7.50;99.90
46562;DHT22;32289;42.688;23.330;2022-12-08T19:52:12;7.40;99.90
46562;DHT22;32289;42.688;23.330;2022-12-08T19:55:53;7.30;99.90
46562;DHT22;32289;42.688;23.330;2022-12-08T19:59:34;7.10;99.90
46562;DHT22;32289;42.688;23.330;2022-12-08T20:03:19;7.10;99.90
46562;DHT22;32289;42.688;23.330;2022-12-08T20:07:00;7.10;99.90
46562;DHT22;32289;42.688;23.330;2022-12-08T20:10:43;7.00;99.90
46562;DHT22;32289;42.688;23.330;2022-12-08T20:14:24;6.90;99.90
46562;DHT22;32289;42.688;23.330;2022-12-08T20:18:05;6.90;99.90
46562;DHT22;32289;42.688;23.330;2022-12-08T20:21:45;7.10;99.90
46562;DHT22;32289;42.688;23.330;2022-12-08T20:25:26;6.70;99.90
46562;DHT22;32289;42.688;23.330;2022-12-08T20:29:07;6.80;99.90
46562;DHT22;32289;42.688;23.330;2022-12-08T20:32:48;6.90;99.90
46562;DHT22;32289;42.688;23.330;2022-12-08T20:36:29;6.70;99.90
46562;DHT22;32289;42.688;23.330;2022-12-08T20:40:10;6.50;99.90
46562;DHT22;32289;42.688;23.330;2022-12-08T20:43:52;6.40;99.90
46562;DHT22;32289;42.688;23.330;2022-12-08T20:47:34;6.50;99.90
46562;DHT22;32289;42.688;23.330;2022-12-08T20:51:16;6.40;99.90
46562;DHT22;32289;42.688;23.330;2022-12-08T20:54:57;6.30;99.90
46562;DHT22;32289;42.688;23.330;2022-12-08T20:58:39;6.30;99.90
46562;DHT22;32289;42.688;23.330;2022-12-08T21:02:20;6.10;99.90
46562;DHT22;32289;42.688;23.330;2022-12-08T21:06:01;6.10;99.90
46562;DHT22;32289;42.688;23.330;2022-12-08T21:09:42;6.20;99.90
46562;DHT22;32289;42.688;23.330;2022-12-08T21:13:23;6.30;99.90
46562;DHT22;32289;42.688;23.330;2022-12-08T21:17:03;6.20;99.90
46562;DHT22;32289;42.688;23.330;2022-12-08T21:20:44;6.20;99.90
46562;DHT22;32289;42.688;23.330;2022-12-08T21:24:27;6.20;99.90
46562;DHT22;32289;42.688;23.330;2022-12-08T21:28:08;6.20;99.90
46562;DHT22;32289;42.688;23.330;2022-12-08T21:31:49;6.30;99.90
46562;DHT22;32289;42.688;23.330;2022-12-08T21:35:31;6.20;99.90
46562;DHT22;32289;42.688;23.330;2022-12-08T21:39:11;6.10;99.90
46562;DHT22;32289;42.688;23.330;2022-12-08T21:42:52;6.00;99.90
46562;DHT22;32289;42.688;23.330;2022-12-08T21:46:33;6.00;99.90
46562;DHT22;32289;42.688;23.330;2022-12-08T21:50:14;5.90;99.90
46562;DHT22;32289;42.688;23.330;2022-12-08T21:53:55;6.00;99.90
46562;DHT22;32289;42.688;23.330;2022-12-08T21:57:36;6.00;99.90
46562;DHT22;32289;42.688;23.330;2022-12-08T22:01:17;6.00;99.90
46562;DHT22;32289;42.688;23.330;2022-12-08T22:04:59;6.00;99.90
46562;DHT22;32289;42.688;23.330;2022-12-08T22:08:40;6.00;99.90
46562;DHT22;32289;42.688;23.330;2022-12-08T22:12:21;6.00;99.90
46562;DHT22;32289;42.688;23.330;2022-12-08T22:16:05;6.00;99.90
46562;DHT22;32289;42.688;23.330;2022-12-08T22:19:46;6.10;99.90
46562;DHT22;32289;42.688;23.330;2022-12-08T22:23:27;6.10;99.90
46562;DHT22;32289;42.688;23.330;2022-12-08T22:27:08;6.00;99.90
46562;DHT22;32289;42.688;23.330;2022-12-08T22:30:48;6.00;99.90
46562;DHT22;32289;42.688;23.330;2022-12-08T22:34:29;6.00;99.90
46562;DHT22;32289;42.688;23.330;2022-12-08T22:38:10;6.00;99.90
46562;DHT22;32289;42.688;23.330;2022-12-08T22:41:50;6.10;99.90
46562;DHT22;32289;42.688;23.330;2022-12-08T22:45:31;6.10;99.90
46562;DHT22;32289;42.688;23.330;2022-12-08T22:49:12;5.80;99.90
46562;DHT22;32289;42.688;23.330;2022-12-08T22:52:53;5.90;99.90
46562;DHT22;32289;42.688;23.330;2022-12-08T22:56:33;5.90;99.90
46562;DHT22;32289;42.688;23.330;2022-12-08T23:00:14;5.80;99.90
46562;DHT22;32289;42.688;23.330;2022-12-08T23:03:56;5.90;99.90
46562;DHT22;32289;42.688;23.330;2022-12-08T23:07:37;5.60;99.90
46562;DHT22;32289;42.688;23.330;2022-12-08T23:11:22;5.60;99.90
46562;DHT22;32289;42.688;23.330;2022-12-08T23:15:04;5.40;99.90
46562;DHT22;32289;42.688;23.330;2022-12-08T23:18:45;5.50;99.90
46562;DHT22;32289;42.688;23.330;2022-12-08T23:22:25;5.40;99.90
46562;DHT22;32289;42.688;23.330;2022-12-08T23:26:21;5.40;99.90
46562;DHT22;32289;42.688;23.330;2022-12-08T23:30:04;5.40;99.90
46562;DHT22;32289;42.688;23.330;2022-12-08T23:33:46;5.30;99.90
46562;DHT22;32289;42.688;23.330;2022-12-08T23:37:27;5.30;99.90
46562;DHT22;32289;42.688;23.330;2022-12-08T23:41:10;5.40;99.90
46562;DHT22;32289;42.688;23.330;2022-12-08T23:44:51;5.40;99.90
46562;DHT22;32289;42.688;23.330;2022-12-08T23:48:32;5.40;99.90
46562;DHT22;32289;42.688;23.330;2022-12-08T23:52:13;5.50;99.90
46562;DHT22;32289;42.688;23.330;2022-12-08T23:56:02;5.60;99.90
46562;DHT22;32289;42.688;23.330;2022-12-08T23:59:43;5.40;99.90
